Time;durP1;ratioP1;P1;durP2;ratioP2;P2;SDS_P1;SDS_P2;PMS_P1;PMS_P2;Temp;Humidity;BMP_temperature;BMP_pressure;BME280_temperature;BME280_humidity;BME280_pressure;Samples;Min_cycle;Max_cycle;Signal;HPM_P1;HPM_P2
2022/04/08 00:00:28;;;;;;;5.00;2.10;;;;;;;19.45;44.56;99790.09;4917193;29;20048;-73
2022/04/08 00:02:55;;;;;;;7.18;1.90;;;;;;;19.46;44.83;99779.19;4916812;29;20384;-74
2022/04/08 00:05:22;;;;;;;3.53;1.70;;;;;;;19.46;45.01;99783.72;4916618;29;20056;-74
2022/04/08 00:07:50;;;;;;;4.38;1.80;;;;;;;19.46;44.76;99786.38;4917374;29;20055;-74
2022/04/08 00:10:18;;;;;;;2.78;1.58;;;;;;;19.46;44.94;99797.13;4917292;29;20048;-73
2022/04/08 00:12:45;;;;;;;2.90;1.83;;;;;;;19.46;44.97;99794.44;4917206;29;20056;-73
2022/04/08 00:15:13;;;;;;;4.00;1.77;;;;;;;19.44;44.95;99791.91;4915252;29;20064;-73
2022/04/08 00:17:40;;;;;;;7.38;1.98;;;;;;;19.44;44.97;99794.56;4915238;29;20388;-73
2022/04/08 00:20:08;;;;;;;5.75;2.40;;;;;;;19.45;44.94;99792.75;4916619;29;20485;-73
2022/04/08 00:22:42;;;;;;;5.18;1.83;;;;;;;19.44;44.83;99797.25;4916367;29;20044;-73
2022/04/08 00:25:09;;;;;;;5.47;1.90;;;;;;;19.45;45.00;99798.13;4916944;29;20048;-73
2022/04/08 00:27:38;;;;;;;2.88;1.60;;;;;;;19.45;45.08;99795.44;4916337;29;20048;-74
2022/04/08 00:30:06;;;;;;;5.13;1.90;;;;;;;19.44;45.08;99801.78;4899700;29;20059;-74
2022/04/08 00:32:34;;;;;;;3.53;1.80;;;;;;;19.44;44.89;99796.44;4916316;29;20053;-74
2022/04/08 00:35:01;;;;;;;3.30;1.88;;;;;;;19.45;44.87;99801.66;4916441;29;20055;-74
2022/04/08 00:37:28;;;;;;;4.55;2.00;;;;;;;19.44;45.04;99794.56;4915932;29;20383;-74
2022/04/08 00:39:56;;;;;;;3.90;1.60;;;;;;;19.44;45.14;99794.56;4898957;29;20052;-74
2022/04/08 00:42:23;;;;;;;2.97;1.50;;;;;;;19.45;44.95;99787.41;4916848;29;20100;-73
2022/04/08 00:44:51;;;;;;;2.70;1.67;;;;;;;19.44;45.05;99786.53;4916610;29;20048;-73
2022/04/08 00:47:18;;;;;;;2.97;1.42;;;;;;;19.44;44.94;99783.00;4916113;29;20400;-73
2022/04/08 00:49:45;;;;;;;3.50;1.80;;;;;;;19.45;45.03;99776.66;4915978;29;20044;-74
2022/04/08 00:52:14;;;;;;;2.03;1.38;;;;;;;19.44;44.94;99778.47;4899186;29;20048;-73
2022/04/08 00:54:44;;;;;;;3.97;1.58;;;;;;;19.45;45.01;99773.97;4898720;29;20400;-74
2022/04/08 00:57:12;;;;;;;2.97;1.60;;;;;;;19.44;45.09;99777.63;4916708;29;20048;-73
2022/04/08 00:59:39;;;;;;;3.88;2.00;;;;;;;19.44;45.06;99780.31;4915864;29;20044;-73
2022/04/08 01:02:07;;;;;;;4.18;1.65;;;;;;;19.43;45.08;99776.81;4916313;29;20052;-73
2022/04/08 01:04:53;;;;;;;3.08;1.52;;;;;;;19.44;45.05;99766.91;4915822;29;20078;-75
2022/04/08 01:07:22;;;;;;;2.45;1.40;;;;;;;19.44;45.18;99773.09;4916154;29;20384;-73
2022/04/08 01:09:52;;;;;;;2.90;1.58;;;;;;;19.43;45.33;99767.91;4915929;29;20048;-73
2022/04/08 01:12:19;;;;;;;2.85;1.60;;;;;;;19.43;45.21;99771.44;4916235;29;20036;-74
2022/04/08 01:14:47;;;;;;;3.92;1.58;;;;;;;19.44;45.18;99766.91;4915359;29;20067;-73
2022/04/08 01:17:14;;;;;;;5.07;1.77;;;;;;;19.44;45.27;99756.16;4915720;29;20535;-73
2022/04/08 01:19:42;;;;;;;1.98;1.33;;;;;;;19.43;45.36;99758.00;4915564;29;20048;-73
2022/04/08 01:22:09;;;;;;;4.03;1.50;;;;;;;19.43;45.26;99768.75;4915870;29;20052;-73
2022/04/08 01:24:40;;;;;;;3.90;1.67;;;;;;;19.44;45.14;99764.22;4915502;29;20052;-73
2022/04/08 01:27:08;;;;;;;2.42;1.50;;;;;;;19.44;45.26;99758.84;4916369;29;20048;-73
2022/04/08 01:29:35;;;;;;;4.22;1.98;;;;;;;19.44;45.06;99764.22;4915298;29;20066;-73
2022/04/08 01:32:03;;;;;;;2.97;1.40;;;;;;;19.44;45.35;99774.94;4899022;29;20051;-73
2022/04/08 01:34:31;;;;;;;3.40;1.60;;;;;;;19.42;45.32;99767.06;4915628;29;20510;-73
2022/04/08 01:36:58;;;;;;;3.38;1.40;;;;;;;19.44;45.29;99769.59;4898887;29;20048;-73
2022/04/08 01:39:25;;;;;;;3.28;1.80;;;;;;;19.43;45.19;99774.13;4898670;29;20056;-74
2022/04/08 01:41:53;;;;;;;2.50;1.55;;;;;;;19.44;45.27;99777.63;4915098;29;20052;-74
2022/04/08 01:44:20;;;;;;;4.10;1.70;;;;;;;19.43;45.25;99771.44;4915584;29;20071;-74
2022/04/08 01:46:47;;;;;;;3.38;1.67;;;;;;;19.43;45.17;99768.75;4915215;29;20487;-74
2022/04/08 01:49:15;;;;;;;2.78;1.40;;;;;;;19.44;45.26;99774.94;4915778;29;20048;-74
2022/04/08 01:51:42;;;;;;;3.88;1.67;;;;;;;19.43;45.31;99775.97;4914579;29;20040;-74
2022/04/08 01:54:10;;;;;;;3.42;1.38;;;;;;;19.43;45.17;99776.81;4916181;29;20048;-74
2022/04/08 01:56:37;;;;;;;2.80;1.55;;;;;;;19.43;45.22;99775.97;4916262;29;20052;-74
2022/04/08 01:59:04;;;;;;;2.72;1.27;;;;;;;19.44;45.10;99780.31;4915565;29;20404;-73
2022/04/08 02:01:32;;;;;;;3.80;1.35;;;;;;;19.43;45.32;99786.69;4915834;29;20037;-74
2022/04/08 02:03:59;;;;;;;2.92;1.40;;;;;;;19.43;45.37;99784.84;4915551;29;20055;-73
2022/04/08 02:06:27;;;;;;;2.72;1.65;;;;;;;19.43;45.18;99798.28;4914920;29;20048;-73
2022/04/08 02:08:54;;;;;;;2.25;1.23;;;;;;;19.42;45.29;99791.22;4898502;29;20059;-74
2022/04/08 02:11:21;;;;;;;3.08;1.45;;;;;;;19.43;45.18;99800.13;4914839;29;20044;-73
2022/04/08 02:13:49;;;;;;;2.30;1.30;;;;;;;19.43;45.24;99792.91;4894819;29;20492;-73
2022/04/08 02:16:17;;;;;;;3.33;1.58;;;;;;;19.42;45.28;99788.53;4896240;29;20055;-73
2022/04/08 02:18:44;;;;;;;3.05;1.38;;;;;;;19.43;45.33;99786.69;4895583;29;20059;-74
2022/04/08 02:21:11;;;;;;;2.53;1.45;;;;;;;19.43;44.99;99790.22;4896525;29;20048;-73
2022/04/08 02:23:39;;;;;;;3.47;1.55;;;;;;;19.44;45.38;99788.38;4895848;29;20049;-73
2022/04/08 02:26:06;;;;;;;2.05;1.20;;;;;;;19.43;45.45;99789.38;4910168;29;20055;-73
2022/04/08 02:28:34;;;;;;;2.20;1.33;;;;;;;19.43;45.41;99784.00;4895677;29;20075;-73
2022/04/08 02:31:03;;;;;;;2.53;1.48;;;;;;;19.44;45.40;99783.00;4896308;29;20053;-74
2022/04/08 02:33:31;;;;;;;3.83;1.42;;;;;;;19.44;45.33;99788.38;4895740;29;20060;-73
2022/04/08 02:35:59;;;;;;;2.58;1.55;;;;;;;19.43;45.32;99774.13;4895954;29;20053;-73
2022/04/08 02:38:27;;;;;;;2.13;1.20;;;;;;;19.42;45.27;99783.19;4895911;29;20056;-73
2022/04/08 02:40:54;;;;;;;5.05;1.42;;;;;;;19.42;45.42;99793.06;4895667;29;20067;-73
2022/04/08 02:43:22;;;;;;;2.60;1.30;;;;;;;19.43;45.24;99792.91;4895511;29;20427;-73
2022/04/08 02:45:50;;;;;;;4.00;1.70;;;;;;;19.43;45.29;99798.28;4895824;29;20489;-73
2022/04/08 02:48:18;;;;;;;3.47;1.40;;;;;;;19.42;45.35;99793.91;4895581;29;20055;-74
2022/04/08 02:50:46;;;;;;;4.30;1.50;;;;;;;19.42;45.18;99796.59;4895470;29;20044;-73
2022/04/08 02:53:13;;;;;;;3.78;1.23;;;;;;;19.43;45.37;99800.97;4896066;29;20477;-73
2022/04/08 02:55:40;;;;;;;3.25;1.38;;;;;;;19.42;45.44;99801.97;4896320;29;20537;-74
2022/04/08 02:58:08;;;;;;;2.75;1.25;;;;;;;19.41;45.34;99805.66;4895400;29;20052;-73
2022/04/08 03:00:35;;;;;;;4.30;1.50;;;;;;;19.41;45.19;99792.25;4895926;29;20053;-73
2022/04/08 03:03:02;;;;;;;4.40;1.52;;;;;;;19.43;45.18;99797.44;4898421;29;20045;-73
2022/04/08 03:05:30;;;;;;;4.00;1.45;;;;;;;19.41;45.27;99797.59;4899228;29;20056;-76
2022/04/08 03:07:57;;;;;;;2.35;1.42;;;;;;;19.43;45.16;99789.38;4899144;29;20063;-74
2022/04/08 03:10:25;;;;;;;3.38;1.50;;;;;;;19.43;45.27;99789.38;4899092;29;20045;-74
2022/04/08 03:12:52;;;;;;;3.97;1.40;;;;;;;19.43;45.26;99789.38;4881827;29;20057;-74
2022/04/08 03:15:20;;;;;;;3.45;1.40;;;;;;;19.43;45.29;99789.38;4914876;29;20059;-73
2022/04/08 03:17:51;;;;;;;4.22;1.33;;;;;;;19.41;45.40;99773.44;4917377;29;20055;-74
2022/04/08 03:20:18;;;;;;;3.28;1.42;;;;;;;19.42;45.32;99780.50;4918120;29;20051;-74
2022/04/08 03:22:46;;;;;;;2.83;1.52;;;;;;;19.41;45.39;99778.81;4900976;29;20051;-74
2022/04/08 03:25:13;;;;;;;2.95;1.67;;;;;;;19.42;45.20;99782.34;4917121;29;20040;-74
2022/04/08 03:27:40;;;;;;;4.55;1.70;;;;;;;19.41;45.29;99780.66;4899937;29;20059;-74
2022/04/08 03:30:08;;;;;;;2.50;1.20;;;;;;;19.41;45.55;99786.88;4917145;29;20052;-74
2022/04/08 03:32:36;;;;;;;3.03;1.40;;;;;;;19.41;45.46;99788.72;4900076;29;20060;-74
2022/04/08 03:35:03;;;;;;;2.33;1.42;;;;;;;19.41;45.43;99797.59;4899801;29;20055;-74
2022/04/08 03:37:31;;;;;;;2.22;1.30;;;;;;;19.42;45.44;99798.44;4918005;29;20044;-74
2022/04/08 03:39:58;;;;;;;3.28;1.40;;;;;;;19.41;45.37;99792.25;4917290;29;20052;-74
2022/04/08 03:42:26;;;;;;;8.13;1.58;;;;;;;19.41;45.38;99807.50;4899141;29;20056;-74
2022/04/08 03:44:54;;;;;;;3.28;1.42;;;;;;;19.41;45.38;99807.50;4917740;29;20051;-74
2022/04/08 03:47:21;;;;;;;4.53;1.15;;;;;;;19.41;45.51;99811.03;4916967;29;20052;-74
2022/04/08 03:49:49;;;;;;;3.03;1.30;;;;;;;19.40;45.30;99795.91;4916889;29;20403;-74
2022/04/08 03:52:16;;;;;;;4.05;1.40;;;;;;;19.41;45.25;99799.44;4916781;29;20044;-73
2022/04/08 03:54:43;;;;;;;3.65;1.50;;;;;;;19.41;45.48;99812.88;4917459;29;20411;-74
2022/04/08 03:57:11;;;;;;;2.47;1.30;;;;;;;19.42;45.32;99809.19;4914759;29;20059;-74
2022/04/08 03:59:41;;;;;;;3.35;1.38;;;;;;;19.39;45.35;99813.00;4917061;29;20048;-74
2022/04/08 04:02:09;;;;;;;2.97;1.40;;;;;;;19.41;45.42;99812.88;4916875;29;20048;-74
2022/04/08 04:04:36;;;;;;;2.67;1.17;;;;;;;19.41;45.51;99818.25;4916717;29;20048;-74
2022/04/08 04:07:04;;;;;;;2.60;1.40;;;;;;;19.41;45.40;99819.06;4884445;29;20074;-74
2022/04/08 04:09:32;;;;;;;3.25;1.65;;;;;;;19.40;45.43;99816.53;4916809;29;20048;-74
2022/04/08 04:11:59;;;;;;;3.58;1.25;;;;;;;19.40;45.33;99812.00;4916673;29;20052;-74
2022/04/08 04:14:26;;;;;;;2.55;1.30;;;;;;;19.40;45.40;99808.47;4915835;29;20438;-74
2022/04/08 04:16:54;;;;;;;3.25;1.50;;;;;;;19.40;45.40;99793.22;4916445;29;20060;-74
2022/04/08 04:19:21;;;;;;;2.60;1.60;;;;;;;19.40;45.43;99801.25;4899750;29;20048;-73
2022/04/08 04:21:50;;;;;;;1.90;1.13;;;;;;;19.41;45.40;99802.97;4916767;29;20051;-74
2022/04/08 04:24:18;;;;;;;5.60;1.45;;;;;;;19.40;45.48;99806.63;4914438;29;20059;-74
2022/04/08 04:26:45;;;;;;;3.50;1.52;;;;;;;19.40;45.54;99805.78;4916279;29;20381;-74
2022/04/08 04:29:13;;;;;;;3.25;1.30;;;;;;;19.40;45.44;99814.69;4916440;29;20048;-73
2022/04/08 04:31:40;;;;;;;4.10;1.50;;;;;;;19.40;45.45;99811.16;4899996;29;20059;-74
2022/04/08 04:34:07;;;;;;;2.55;1.45;;;;;;;19.40;45.42;99814.69;4916034;29;20051;-74
2022/04/08 04:36:35;;;;;;;2.25;1.48;;;;;;;19.39;45.42;99818.38;4898895;29;20500;-74
2022/04/08 04:39:03;;;;;;;1.95;1.05;;;;;;;19.39;45.41;99812.16;4915981;29;20507;-74
2022/04/08 04:41:32;;;;;;;4.25;1.38;;;;;;;19.40;45.48;99814.69;4899376;29;20500;-74
2022/04/08 04:43:59;;;;;;;1.92;1.20;;;;;;;19.40;45.45;99817.38;4916254;29;20051;-74
2022/04/08 04:46:27;;;;;;;3.25;1.48;;;;;;;19.39;45.38;99815.69;4916001;29;20388;-73
2022/04/08 04:48:54;;;;;;;2.80;1.52;;;;;;;19.40;45.41;99800.44;4916303;29;20055;-74
2022/04/08 04:51:22;;;;;;;4.97;1.50;;;;;;;19.39;45.32;99796.06;4899313;29;20059;-74
2022/04/08 04:53:49;;;;;;;2.83;1.30;;;;;;;19.39;45.49;99796.91;4915865;29;20047;-74
2022/04/08 04:56:17;;;;;;;2.75;1.30;;;;;;;19.38;45.53;99811.34;4914462;29;20399;-74
2022/04/08 04:58:44;;;;;;;2.83;1.27;;;;;;;19.39;45.58;99809.47;4915966;29;20484;-75
2022/04/08 05:01:11;;;;;;;3.58;1.20;;;;;;;19.40;45.30;99811.16;4915854;29;20052;-75
2022/04/08 05:03:40;;;;;;;2.75;1.25;;;;;;;19.40;45.73;99800.44;4916237;29;20049;-75
2022/04/08 05:06:08;;;;;;;3.15;1.60;;;;;;;19.40;45.49;99809.31;4916289;29;20048;-74
2022/04/08 05:08:35;;;;;;;4.80;1.70;;;;;;;19.40;45.57;99813.84;4914601;29;20048;-74
2022/04/08 05:11:03;;;;;;;6.50;1.80;;;;;;;19.40;45.42;99827.25;4898440;29;20056;-75
2022/04/08 05:13:32;;;;;;;3.35;1.42;;;;;;;19.40;45.47;99813.84;4916048;29;20055;-75
2022/04/08 05:16:00;;;;;;;4.95;1.70;;;;;;;19.39;45.57;99826.44;4916369;29;20048;-75
2022/04/08 05:18:27;;;;;;;2.90;1.25;;;;;;;19.39;45.31;99825.59;4915685;29;20055;-74
2022/04/08 05:20:55;;;;;;;2.25;1.20;;;;;;;19.40;45.31;99829.94;4898437;29;20063;-75
2022/04/08 05:23:25;;;;;;;2.53;1.20;;;;;;;19.39;45.32;99833.63;4915890;29;20476;-75
2022/04/08 05:25:53;;;;;;;2.70;1.33;;;;;;;19.37;45.18;99833.81;4915656;29;20055;-74
2022/04/08 05:28:20;;;;;;;3.30;1.40;;;;;;;19.39;45.30;99849.75;4916237;29;20059;-74
2022/04/08 05:30:48;;;;;;;4.53;1.50;;;;;;;19.38;45.42;99846.22;4916059;29;20559;-74
2022/04/08 05:33:16;;;;;;;2.95;1.27;;;;;;;19.38;45.31;99845.38;4914235;29;20044;-75
2022/04/08 05:35:43;;;;;;;4.57;1.90;;;;;;;19.37;45.36;99849.06;4914064;29;20511;-74
2022/04/08 05:38:10;;;;;;;3.15;1.20;;;;;;;19.37;45.31;99843.69;4915278;29;20048;-74
2022/04/08 05:40:38;;;;;;;3.78;1.65;;;;;;;19.37;45.24;99841.84;4898609;29;20202;-74
2022/04/08 05:43:05;;;;;;;4.47;1.70;;;;;;;19.37;45.16;99835.66;4915999;29;20044;-74
2022/04/08 05:45:33;;;;;;;3.13;1.30;;;;;;;19.37;45.34;99830.28;4915188;29;20412;-74
2022/04/08 05:48:05;;;;;;;4.03;1.67;;;;;;;19.37;45.26;99838.34;4915111;29;20048;-74
2022/04/08 05:50:33;;;;;;;3.80;1.70;;;;;;;19.38;45.17;99848.06;4915223;29;20040;-75
2022/04/08 05:53:00;;;;;;;3.53;1.95;;;;;;;19.37;45.29;99844.53;4898916;29;20060;-74
2022/04/08 05:55:48;;;;;;;4.97;1.85;;;;;;;19.37;45.43;99857.97;4915672;29;20051;-74
2022/04/08 05:58:15;;;;;;;2.40;1.30;;;;;;;19.37;45.54;99855.28;4915055;29;20048;-74
2022/04/08 06:00:43;;;;;;;3.28;1.60;;;;;;;19.37;45.59;99855.28;4898543;29;20074;-75
2022/04/08 06:03:10;;;;;;;2.65;1.40;;;;;;;19.38;45.44;99856.97;4897614;29;20067;-75
2022/04/08 06:05:38;;;;;;;3.88;1.73;;;;;;;19.38;45.39;99870.38;4914938;29;20055;-74
2022/04/08 06:08:05;;;;;;;5.45;1.67;;;;;;;19.39;45.47;99873.91;4914761;29;20052;-75
2022/04/08 06:10:33;;;;;;;3.08;1.70;;;;;;;19.39;45.22;99874.75;4914769;28;20055;-74
2022/04/08 06:13:02;;;;;;;2.08;1.23;;;;;;;19.39;45.42;99869.38;4914868;29;20048;-75
2022/04/08 06:15:31;;;;;;;3.53;1.48;;;;;;;19.40;45.68;99870.22;4914598;29;20408;-74
2022/04/08 06:17:58;;;;;;;2.53;1.50;;;;;;;19.40;45.46;99870.22;4915283;28;20056;-74
2022/04/08 06:20:26;;;;;;;3.10;1.40;;;;;;;19.40;45.47;99867.53;4914785;29;20500;-74
2022/04/08 06:22:54;;;;;;;2.85;1.67;;;;;;;19.40;45.51;99876.41;4915206;29;20052;-74
2022/04/08 06:25:23;;;;;;;4.40;1.70;;;;;;;19.41;45.48;99874.59;4882182;29;20068;-74
2022/04/08 06:28:04;;;;;;;2.63;1.60;;;;;;;19.39;45.36;99880.09;4914087;29;20048;-74
2022/04/08 06:30:36;;;;;;;3.38;1.70;;;;;;;19.41;45.65;99882.66;4915319;29;20052;-74
2022/04/08 06:33:06;;;;;;;2.77;1.60;;;;;;;19.41;45.55;99882.66;4915242;29;20059;-74
2022/04/08 06:35:34;;;;;;;3.53;1.75;;;;;;;19.42;45.53;99873.59;4914132;29;20411;-74
2022/04/08 06:38:05;;;;;;;3.15;1.60;;;;;;;19.41;45.62;99880.81;4914785;29;20047;-74
2022/04/08 06:40:39;;;;;;;4.57;1.88;;;;;;;19.42;45.69;99878.97;4898617;29;20056;-74
2022/04/08 06:43:09;;;;;;;3.20;1.38;;;;;;;19.42;45.67;99873.59;4915118;29;20058;-74
2022/04/08 06:45:38;;;;;;;5.00;2.13;;;;;;;19.42;45.76;99885.16;4898024;29;20052;-74
2022/04/08 06:48:06;;;;;;;4.35;2.03;;;;;;;19.43;45.83;99889.53;4914975;29;20044;-74
2022/04/08 06:50:33;;;;;;;2.80;1.65;;;;;;;19.44;45.87;99893.06;4920911;29;20052;-74
2022/04/08 06:53:02;;;;;;;3.50;1.50;;;;;;;19.46;46.04;99899.13;4927483;29;20048;-74
2022/04/08 06:55:31;;;;;;;5.40;1.60;;;;;;;19.46;46.03;99904.50;4922519;29;20040;-75
2022/04/08 06:58:00;;;;;;;3.78;1.73;;;;;;;19.46;46.27;99899.13;4916794;29;20048;-74
2022/04/08 07:00:27;;;;;;;4.35;2.10;;;;;;;19.46;46.13;99891.91;4913985;29;20396;-75
2022/04/08 07:02:55;;;;;;;3.92;1.52;;;;;;;19.48;46.46;99886.38;4914436;29;20059;-74
2022/04/08 07:05:25;;;;;;;6.18;2.10;;;;;;;19.50;46.42;99889.75;4913930;29;20515;-74
2022/04/08 07:07:53;;;;;;;2.72;1.50;;;;;;;19.50;46.50;99889.75;4913950;29;20048;-74
2022/04/08 07:10:21;;;;;;;5.03;1.83;;;;;;;19.50;46.30;99889.75;4914142;29;20496;-74
2022/04/08 07:12:48;;;;;;;5.05;2.22;;;;;;;19.52;46.53;99890.44;4914500;29;20059;-74
2022/04/08 07:15:15;;;;;;;4.25;1.70;;;;;;;19.54;46.58;99888.44;4913925;29;20052;-73
2022/04/08 07:17:43;;;;;;;3.63;1.90;;;;;;;19.56;46.96;99901.72;4911839;29;20048;-74
2022/04/08 07:20:16;;;;;;;3.60;1.50;;;;;;;19.55;46.82;99892.81;4914318;29;20052;-73
2022/04/08 07:22:45;;;;;;;4.40;2.05;;;;;;;19.55;46.71;99895.50;4913520;29;20107;-73
2022/04/08 07:25:13;;;;;;;3.33;1.55;;;;;;;19.55;46.60;99895.50;4896713;29;20077;-73
2022/04/08 07:27:49;;;;;;;4.03;1.80;;;;;;;19.56;46.68;99899.03;4913498;29;20044;-74
2022/04/08 07:30:21;;;;;;;3.33;1.55;;;;;;;19.58;46.76;99907.78;4913605;29;20063;-73
2022/04/08 07:32:54;;;;;;;3.92;1.48;;;;;;;19.57;46.86;99901.56;4913660;29;20056;-74
2022/04/08 07:35:23;;;;;;;3.60;1.55;;;;;;;19.57;46.59;99904.25;4914007;29;20044;-73
2022/04/08 07:37:51;;;;;;;3.88;1.63;;;;;;;19.56;46.64;99902.53;4913435;29;20060;-74
2022/04/08 07:40:19;;;;;;;3.85;1.80;;;;;;;19.57;46.64;99900.69;4913943;29;20400;-73
2022/04/08 07:42:46;;;;;;;5.47;1.90;;;;;;;19.58;46.48;99900.56;4914280;29;20059;-73
2022/04/08 07:45:14;;;;;;;4.72;1.48;;;;;;;19.58;46.65;99899.72;4913919;29;20057;-74
2022/04/08 07:47:41;;;;;;;4.15;1.90;;;;;;;19.58;46.79;99895.19;4914617;29;20059;-73
2022/04/08 07:50:13;;;;;;;4.63;1.75;;;;;;;19.59;46.65;99901.41;4917075;29;20516;-74
2022/04/08 07:52:42;;;;;;;5.00;1.95;;;;;;;19.60;46.53;99901.25;4916784;29;20052;-73
2022/04/08 07:55:10;;;;;;;3.67;1.60;;;;;;;19.61;47.26;99902.97;4915936;29;20052;-74
2022/04/08 07:57:46;;;;;;;9.00;2.53;;;;;;;19.63;47.06;99898.28;4900602;29;20048;-73
2022/04/08 08:00:15;;;;;;;6.70;3.00;;;;;;;19.64;47.11;99891.06;4896358;29;20481;-74
2022/04/08 08:02:44;;;;;;;4.38;2.10;;;;;;;19.65;47.49;99890.94;4897333;29;20049;-74
2022/04/08 08:05:12;;;;;;;5.78;2.42;;;;;;;19.66;47.98;99897.97;4897291;29;20040;-74
2022/04/08 08:07:43;;;;;;;3.60;2.05;;;;;;;19.67;47.82;99888.06;4898175;29;20492;-75
2022/04/08 08:10:15;;;;;;;5.65;2.30;;;;;;;19.68;48.07;99895.13;4897389;29;20381;-75
2022/04/08 08:12:42;;;;;;;4.47;1.90;;;;;;;19.69;47.85;99884.25;4897379;29;20405;-75
2022/04/08 08:15:10;;;;;;;5.07;2.15;;;;;;;19.69;48.29;99886.94;4896953;29;20072;-74
2022/04/08 08:17:39;;;;;;;4.68;1.90;;;;;;;19.72;48.37;99899.19;4897291;29;20389;-75
2022/04/08 08:20:08;;;;;;;4.20;2.10;;;;;;;19.72;48.23;99905.38;4896987;29;20112;-75
2022/04/08 08:22:36;;;;;;;4.38;2.15;;;;;;;19.73;48.80;99899.03;4895787;29;20049;-74
2022/04/08 08:25:05;;;;;;;3.70;2.13;;;;;;;19.74;48.37;99894.50;4895610;29;20044;-74
2022/04/08 08:27:42;;;;;;;4.15;1.80;;;;;;;19.76;48.44;99901.38;4897077;29;20048;-75
2022/04/08 08:30:11;;;;;;;4.88;1.92;;;;;;;19.77;48.40;99899.56;4896950;29;20403;-74
2022/04/08 08:32:42;;;;;;;4.65;1.80;;;;;;;19.78;48.33;99909.31;4896901;29;20053;-75
2022/04/08 08:35:12;;;;;;;5.78;2.00;;;;;;;19.80;48.62;99917.19;4897397;29;20075;-75
2022/04/08 08:37:40;;;;;;;5.63;2.08;;;;;;;19.81;48.52;99909.00;4897697;29;20048;-74
2022/04/08 08:40:09;;;;;;;4.90;2.33;;;;;;;19.82;48.38;99886.50;4896996;29;20435;-75
2022/04/08 08:42:37;;;;;;;5.35;1.65;;;;;;;19.83;48.38;99898.09;4896988;29;20048;-76
2022/04/08 08:45:06;;;;;;;4.63;2.13;;;;;;;19.84;48.47;99886.34;4896483;29;20053;-75
2022/04/08 08:47:34;;;;;;;6.10;2.15;;;;;;;19.85;48.25;99885.31;4896881;29;20048;-74
2022/04/08 08:50:04;;;;;;;6.13;2.13;;;;;;;19.86;48.27;99893.25;4896459;29;20048;-75
2022/04/08 08:52:32;;;;;;;5.15;1.70;;;;;;;19.87;47.90;99886.03;4896854;29;20060;-74
2022/04/08 08:55:04;;;;;;;4.97;1.75;;;;;;;19.88;47.83;99885.03;4896589;29;20076;-75
2022/04/08 08:57:32;;;;;;;4.22;1.63;;;;;;;19.89;48.23;99892.06;4961744;28;20056;-75
2022/04/08 09:00:06;;;;;;;5.90;1.60;;;;;;;19.88;48.04;99879.66;4896251;29;20049;-75
2022/04/08 09:02:35;;;;;;;9.70;2.85;;;;;;;19.89;47.75;99886.69;4879646;29;20139;-75
2022/04/08 09:05:23;;;;;;;5.25;2.15;;;;;;;19.90;47.79;99886.56;4895715;29;20493;-75
2022/04/08 09:07:58;;;;;;;8.60;2.22;;;;;;;19.91;47.55;99879.34;4896476;29;20055;-74
2022/04/08 09:10:27;;;;;;;3.08;1.65;;;;;;;19.91;47.55;99872.13;4897026;29;20060;-76
2022/04/08 09:12:55;;;;;;;3.92;1.80;;;;;;;19.93;47.73;99863.88;4896627;29;20056;-74
2022/04/08 09:15:24;;;;;;;3.50;1.55;;;;;;;19.94;47.40;99862.91;4895074;29;20045;-73
2022/04/08 09:17:51;;;;;;;3.72;1.60;;;;;;;19.94;47.22;99849.47;4894376;29;20064;-74
2022/04/08 09:20:19;;;;;;;3.78;1.58;;;;;;;19.94;47.30;99854.84;4895447;29;20381;-74
2022/04/08 09:22:55;;;;;;;4.63;1.80;;;;;;;19.94;47.23;99849.47;4895482;29;20048;-74
2022/04/08 09:25:26;;;;;;;4.60;1.88;;;;;;;19.94;47.13;99860.22;4894233;29;20044;-73
2022/04/08 09:27:58;;;;;;;4.72;1.80;;;;;;;19.93;47.33;99862.06;4894155;29;20050;-73
2022/04/08 09:30:26;;;;;;;3.15;1.67;;;;;;;19.93;47.10;99848.66;4863236;29;20059;-73
2022/04/08 09:32:54;;;;;;;6.22;1.80;;;;;;;19.93;46.96;99829.84;4895989;29;20052;-73
2022/04/08 09:35:24;;;;;;;4.55;1.83;;;;;;;19.93;46.97;99839.72;4896048;29;20044;-73
2022/04/08 09:38:01;;;;;;;4.10;1.80;;;;;;;19.93;46.83;99847.78;4896483;29;20070;-73
2022/04/08 09:40:38;;;;;;;8.70;1.83;;;;;;;19.93;46.80;99848.66;4896901;29;20055;-73
2022/04/08 09:43:06;;;;;;;5.10;1.73;;;;;;;19.92;46.76;99846.09;4896527;28;20064;-73
2022/04/08 09:45:34;;;;;;;3.20;1.45;;;;;;;19.93;46.58;99847.78;4896014;29;20041;-73
2022/04/08 09:48:03;;;;;;;2.85;1.38;;;;;;;19.92;46.57;99835.34;4896264;29;20064;-72
2022/04/08 09:50:31;;;;;;;3.75;1.40;;;;;;;19.92;46.57;99838.03;4879293;29;20052;-73
2022/04/08 09:52:59;;;;;;;4.03;1.50;;;;;;;19.92;46.49;99830.81;4895764;29;20052;-74
2022/04/08 09:55:29;;;;;;;2.78;1.25;;;;;;;19.91;46.47;99820.25;4896250;29;20049;-73
2022/04/08 09:58:00;;;;;;;5.60;1.35;;;;;;;19.92;46.44;99827.28;4895865;29;20059;-73
2022/04/08 10:00:28;;;;;;;3.80;1.48;;;;;;;19.91;46.38;99821.09;4896266;29;20055;-73
2022/04/08 10:03:01;;;;;;;3.22;1.60;;;;;;;19.92;46.54;99829.97;4895653;29;20063;-73
2022/04/08 10:05:28;;;;;;;;;;;;;;;19.92;46.38;99821.91;4896688;29;20389;-73
2022/04/08 10:07:56;;;;;;;3.28;1.13;;;;;;;19.91;46.13;99810.34;4895964;29;19923;-73
2022/04/08 10:10:31;;;;;;;2.30;1.20;;;;;;;19.92;46.11;99808.50;4895633;29;20512;-73
2022/04/08 10:13:10;;;;;;;4.05;1.27;;;;;;;19.91;46.47;99809.50;4896164;29;20503;-73
2022/04/08 10:15:50;;;;;;;2.95;1.45;;;;;;;19.91;46.21;99813.03;4895504;29;20412;-73
2022/04/08 10:18:18;;;;;;;1.70;1.00;;;;;;;19.92;46.42;99816.53;4878765;29;20515;-74
2022/04/08 10:20:46;;;;;;;3.90;1.40;;;;;;;19.91;46.35;99814.88;4895830;29;20045;-73
2022/04/08 10:23:18;;;;;;;5.43;1.67;;;;;;;19.91;46.22;99815.72;4895806;29;20049;-73
2022/04/08 10:25:51;;;;;;;3.65;1.55;;;;;;;19.91;46.33;99809.50;4959490;28;20056;-73
2022/04/08 10:28:34;;;;;;;2.08;1.20;;;;;;;19.91;46.10;99810.34;4895939;29;20056;-74
2022/04/08 10:31:12;;;;;;;4.03;1.30;;;;;;;19.92;46.38;99805.81;4894338;29;20057;-74
2022/04/08 10:33:48;;;;;;;2.58;1.15;;;;;;;19.92;46.21;99800.44;4896083;29;20044;-74
2022/04/08 10:36:16;;;;;;;2.30;1.35;;;;;;;19.91;45.87;99796.91;4895862;29;20107;-73
2022/04/08 10:38:43;;;;;;;4.47;1.60;;;;;;;19.92;46.08;99797.75;4895336;29;20052;-73
2022/04/08 10:41:11;;;;;;;2.55;1.05;;;;;;;19.91;46.09;99799.59;4895341;29;20049;-73
2022/04/08 10:43:46;;;;;;;2.60;0.90;;;;;;;19.91;46.01;99786.16;4895603;29;20051;-73
2022/04/08 10:46:26;;;;;;;3.30;1.10;;;;;;;19.91;46.21;99790.69;4878243;29;20049;-73
2022/04/08 10:48:56;;;;;;;3.05;1.20;;;;;;;19.90;46.15;99792.53;4895493;29;20053;-74
2022/04/08 10:51:23;;;;;;;2.28;0.90;;;;;;;19.91;45.98;99798.75;4895731;29;20134;-74
2022/04/08 10:54:02;;;;;;;2.17;1.10;;;;;;;19.91;46.06;99783.47;4895221;29;20511;-74
2022/04/08 10:56:36;;;;;;;3.17;1.30;;;;;;;19.91;46.13;99778.09;4895037;29;20500;-74
2022/04/08 10:59:04;;;;;;;4.10;1.40;;;;;;;19.92;46.08;99784.31;4894121;29;20053;-75
2022/04/08 11:01:36;;;;;;;2.67;1.02;;;;;;;19.92;45.92;99771.72;4895494;29;20051;-74
2022/04/08 11:04:05;;;;;;;2.38;1.15;;;;;;;19.92;46.02;99782.47;4895638;29;20057;-74
2022/04/08 11:06:35;;;;;;;3.75;1.23;;;;;;;19.93;45.96;99777.94;4895392;29;20048;-75
2022/04/08 11:09:07;;;;;;;3.08;1.65;;;;;;;19.92;45.90;99774.41;4894811;29;20416;-74
2022/04/08 11:11:38;;;;;;;3.85;1.38;;;;;;;19.93;46.11;99778.81;4895493;29;20099;-74
2022/04/08 11:14:06;;;;;;;3.13;1.23;;;;;;;19.93;45.85;99778.81;4895182;29;20052;-74
2022/04/08 11:16:36;;;;;;;2.25;1.05;;;;;;;19.94;46.03;99782.31;4879282;28;20064;-74
2022/04/08 11:19:05;;;;;;;2.47;1.10;;;;;;;19.93;45.94;99769.88;4895019;29;20049;-74
2022/04/08 11:21:40;;;;;;;1.83;1.08;;;;;;;19.93;46.04;99786.00;4895398;29;20412;-74
2022/04/08 11:24:09;;;;;;;2.33;1.05;;;;;;;19.94;45.83;99785.00;4898120;29;20048;-74
2022/04/08 11:26:44;;;;;;;6.25;1.48;;;;;;;19.93;45.85;99778.81;4897919;29;20037;-74
2022/04/08 11:29:21;;;;;;;2.60;1.10;;;;;;;19.94;46.03;99774.25;4881792;29;20059;-75
2022/04/08 11:31:51;;;;;;;2.40;1.02;;;;;;;19.94;45.76;99772.41;4898687;29;20049;-74
2022/04/08 11:34:23;;;;;;;3.42;1.30;;;;;;;19.95;45.96;99778.63;4898320;29;20049;-75
2022/04/08 11:36:51;;;;;;;2.53;1.13;;;;;;;19.94;45.80;99779.63;4898156;29;20055;-74
2022/04/08 11:39:20;;;;;;;2.13;1.00;;;;;;;19.94;45.83;99766.22;4881764;29;20055;-74
2022/04/08 11:41:53;;;;;;;3.53;1.00;;;;;;;19.93;45.96;99760.00;4898218;29;20060;-75